EDFH/HHN METAR and TAF weather

Enter ICAO airport designator
Station Type Date Time Source
EDFH METAR 2021/09/24 03:20 UTC NOAA

EDFH 240320Z 26006KT 230V290 CAVOK 11/11 Q1019


Station Type Date Time Source
EDFH Decoded METAR 2021/09/24 03:20 UTC NOAA

Hahn, Germany (EDFH) 49-57N 007-16E 498M
Sep 23, 2021 - 11:20 PM EDT / 2021.09.24 0320 UTC
Wind: from the W (260 degrees) at 7 MPH (6 KT) (direction variable):0
Visibility: greater than 7 mile(s):0
Temperature: 51 F (11 C)
Dew Point: 51 F (11 C)
Relative Humidity: 100%
Pressure (altimeter): 30.09 in. Hg (1019 hPa)
ob: EDFH 240320Z 26006KT 230V290 CAVOK 11/11 Q1019
cycle: 3

Station Type Date Time Source
EDFH TAF 2021/09/23 18:27 UTC NOAA

TAF EDFH 231700Z 2318/2418 26008KT CAVOK
TEMPO 2402/2408 2000 BR BKN009

Example: see airport list